Time;durP1;ratioP1;P1;durP2;ratioP2;P2;SDS_P1;SDS_P2;PMS_P1;PMS_P2;Temp;Humidity;BMP_temperature;BMP_pressure;BME280_temperature;BME280_humidity;BME280_pressure;Samples;Min_cycle;Max_cycle;Signal;HPM_P1;HPM_P2
2021/10/21 00:03:11;;;;;;;5.43;4.93;;;16.20;39.30;;;;;;10307000;28;20226;-76
2021/10/21 00:08:15;;;;;;;5.23;4.77;;;16.20;38.90;;;;;;10301648;28;20240;-77
2021/10/21 00:13:19;;;;;;;5.80;5.30;;;16.10;38.80;;;;;;10304040;28;20235;-76
2021/10/21 00:18:23;;;;;;;6.53;5.93;;;16.10;39.20;;;;;;10308134;28;20237;-77
2021/10/21 00:23:26;;;;;;;5.90;5.33;;;16.10;39.00;;;;;;10308108;28;20293;-76
2021/10/21 00:28:31;;;;;;;5.90;5.30;;;16.10;39.00;;;;;;10307177;28;20261;-77
2021/10/21 00:33:35;;;;;;;5.40;4.90;;;16.10;39.30;;;;;;10298260;28;20231;-77
2021/10/21 00:38:38;;;;;;;5.30;4.90;;;16.10;39.20;;;;;;10309962;28;20243;-76
2021/10/21 00:43:43;;;;;;;5.17;4.67;;;16.10;39.20;;;;;;10307205;28;20294;-76
2021/10/21 00:48:46;;;;;;;5.80;5.03;;;16.00;39.60;;;;;;10315305;28;20282;-76
2021/10/21 00:53:49;;;;;;;4.83;4.43;;;15.90;39.30;;;;;;10301502;28;20231;-77
2021/10/21 00:58:54;;;;;;;5.07;4.67;;;15.90;39.80;;;;;;10315708;28;20254;-77
2021/10/21 01:03:57;;;;;;;5.07;4.67;;;15.90;40.20;;;;;;10306859;28;20235;-76
2021/10/21 01:09:02;;;;;;;5.10;4.60;;;15.90;39.70;;;;;;10311037;28;20231;-76
2021/10/21 01:14:06;;;;;;;4.50;4.10;;;15.80;39.90;;;;;;10297070;28;20238;-76
2021/10/21 01:19:17;;;;;;;5.50;4.53;;;15.80;40.10;;;;;;10305681;28;20604;-76
2021/10/21 01:24:24;;;;;;;4.87;4.47;;;15.80;40.50;;;;;;10315332;28;20241;-76
2021/10/21 01:29:28;;;;;;;4.97;4.57;;;15.80;40.20;;;;;;10318051;28;20239;-77
2021/10/21 01:34:31;;;;;;;5.00;4.50;;;15.80;39.90;;;;;;10304060;28;20223;-76
2021/10/21 01:39:35;;;;;;;4.73;3.97;;;15.80;40.00;;;;;;10310676;28;20234;-76
2021/10/21 01:44:39;;;;;;;4.90;4.40;;;15.70;40.30;;;;;;10318947;28;20238;-76
2021/10/21 01:49:42;;;;;;;4.60;4.20;;;15.70;40.30;;;;;;10311042;28;20697;-76
2021/10/21 01:54:46;;;;;;;4.67;4.20;;;15.70;40.30;;;;;;10316799;28;20628;-76
2021/10/21 01:59:49;;;;;;;4.20;3.90;;;15.80;40.90;;;;;;10316032;28;20235;-76
2021/10/21 02:04:53;;;;;;;5.13;4.67;;;15.70;40.50;;;;;;10323078;28;20229;-76
2021/10/21 02:09:57;;;;;;;5.30;4.80;;;15.80;40.60;;;;;;10313376;28;20717;-76
2021/10/21 02:15:00;;;;;;;4.60;4.30;;;15.70;41.10;;;;;;10311118;28;20226;-76
2021/10/21 02:20:04;;;;;;;4.37;4.00;;;15.70;40.70;;;;;;10308927;28;20223;-76
2021/10/21 02:25:11;;;;;;;4.27;3.97;;;15.70;40.80;;;;;;10325091;28;20227;-77
2021/10/21 02:30:16;;;;;;;5.40;4.57;;;15.70;41.20;;;;;;10322565;28;20245;-76
2021/10/21 02:35:20;;;;;;;5.23;4.70;;;15.70;41.00;;;;;;10314361;28;20238;-76
2021/10/21 02:40:24;;;;;;;4.70;4.33;;;15.70;40.80;;;;;;10312699;28;20235;-76
2021/10/21 02:45:27;;;;;;;4.73;4.33;;;15.70;41.20;;;;;;10302675;28;20231;-76
2021/10/21 02:50:30;;;;;;;4.70;4.30;;;15.70;40.90;;;;;;10309028;28;20241;-76
2021/10/21 02:55:35;;;;;;;5.27;4.67;;;15.70;40.90;;;;;;10302777;28;20232;-76
2021/10/21 03:00:38;;;;;;;4.90;4.40;;;15.70;41.30;;;;;;10310415;28;20242;-76
2021/10/21 03:05:41;;;;;;;4.90;4.40;;;15.70;41.00;;;;;;10319918;28;20238;-76
2021/10/21 03:10:48;;;;;;;5.07;4.63;;;15.70;41.20;;;;;;10312373;28;20227;-76
2021/10/21 03:15:51;;;;;;;4.90;4.50;;;15.70;41.70;;;;;;10319705;28;20259;-76
2021/10/21 03:20:54;;;;;;;4.73;4.33;;;15.70;41.30;;;;;;10308703;28;20219;-76
2021/10/21 03:25:59;;;;;;;5.03;4.63;;;15.60;41.50;;;;;;10308310;28;20223;-76
2021/10/21 03:31:02;;;;;;;4.67;4.37;;;15.60;42.00;;;;;;10311855;28;20228;-76
2021/10/21 03:36:06;;;;;;;4.77;4.37;;;15.60;41.70;;;;;;10314126;28;20245;-76
2021/10/21 03:41:11;;;;;;;5.17;4.67;;;15.60;41.90;;;;;;10304000;28;20234;-76
2021/10/21 03:46:14;;;;;;;4.37;4.00;;;15.60;42.20;;;;;;10302344;28;20228;-76
2021/10/21 03:51:18;;;;;;;4.27;3.90;;;15.60;41.90;;;;;;10310778;28;20234;-76
2021/10/21 03:56:22;;;;;;;4.83;4.43;;;15.70;42.00;;;;;;10307253;28;20231;-76
2021/10/21 04:01:25;;;;;;;4.43;4.03;;;15.70;42.50;;;;;;10309008;28;20227;-76
2021/10/21 04:06:29;;;;;;;4.87;4.47;;;15.70;42.10;;;;;;10308913;28;20346;-76
2021/10/21 04:11:33;;;;;;;6.23;4.73;;;15.70;42.10;;;;;;10314791;28;20253;-76
2021/10/21 04:16:36;;;;;;;5.10;4.57;;;15.70;42.60;;;;;;10302934;28;20607;-76
2021/10/21 04:21:39;;;;;;;4.27;3.90;;;15.60;42.40;;;;;;10307947;28;20339;-76
2021/10/21 04:26:44;;;;;;;5.37;4.87;;;15.60;43.10;;;;;;10300313;28;20243;-76
2021/10/21 04:31:47;;;;;;;5.20;4.77;;;15.70;44.10;;;;;;10311714;28;20253;-76
2021/10/21 04:36:51;;;;;;;5.47;4.97;;;15.70;43.50;;;;;;10314667;28;20603;-76
2021/10/21 04:41:55;;;;;;;4.83;4.37;;;15.70;43.50;;;;;;10302290;28;20238;-76
2021/10/21 04:47:00;;;;;;;4.80;4.40;;;15.80;43.90;;;;;;10308890;28;20250;-76
2021/10/21 04:52:03;;;;;;;5.13;4.40;;;15.80;43.30;;;;;;10294475;28;20307;-76
2021/10/21 04:57:08;;;;;;;5.03;4.63;;;15.70;43.50;;;;;;10301985;28;20238;-76
2021/10/21 05:02:11;;;;;;;5.67;5.00;;;15.70;44.30;;;;;;10302391;28;20226;-76
2021/10/21 05:07:14;;;;;;;4.43;4.13;;;15.70;43.90;;;;;;10307024;28;20227;-76
2021/10/21 05:12:19;;;;;;;4.90;3.97;;;15.80;44.20;;;;;;10296441;28;20231;-76
2021/10/21 05:17:22;;;;;;;4.77;4.37;;;15.90;45.10;;;;;;10312499;28;20243;-76
2021/10/21 05:22:25;;;;;;;5.57;4.40;;;16.10;44.70;;;;;;10311770;28;20232;-76
2021/10/21 05:27:29;;;;;;;4.27;3.97;;;16.20;44.60;;;;;;10310093;28;20246;-76
2021/10/21 05:32:33;;;;;;;4.47;4.17;;;16.40;44.90;;;;;;10309642;28;20243;-77
2021/10/21 05:37:36;;;;;;;5.10;4.60;;;16.50;44.50;;;;;;10312030;28;20946;-76
2021/10/21 05:42:40;;;;;;;5.00;4.60;;;16.60;44.30;;;;;;10313482;28;20254;-76
2021/10/21 05:47:45;;;;;;;4.37;4.07;;;16.60;44.60;;;;;;10307299;28;20236;-76
2021/10/21 05:52:48;;;;;;;5.60;5.10;;;16.60;44.10;;;;;;10307988;28;20243;-76
2021/10/21 05:57:53;;;;;;;4.50;4.20;;;16.60;44.70;;;;;;10317930;28;20231;-75
2021/10/21 06:02:56;;;;;;;4.10;3.80;;;16.60;44.60;;;;;;10317208;28;20700;-76
2021/10/21 06:08:00;;;;;;;2.97;2.70;;;16.70;44.20;;;;;;10307883;28;20231;-76
2021/10/21 06:13:05;;;;;;;3.80;2.87;;;16.70;43.80;;;;;;10311812;28;20817;-76
2021/10/21 06:18:11;;;;;;;5.00;3.13;;;16.80;43.70;;;;;;10304999;28;20326;-76
2021/10/21 06:23:15;;;;;;;2.53;2.33;;;16.80;43.80;;;;;;10305238;28;20242;-76
2021/10/21 06:28:19;;;;;;;2.13;2.03;;;16.80;43.60;;;;;;10300081;28;20238;-76
2021/10/21 06:33:22;;;;;;;2.10;1.80;;;16.90;43.80;;;;;;10305932;28;20234;-76
2021/10/21 06:38:26;;;;;;;2.93;2.50;;;16.90;43.60;;;;;;10313463;28;20267;-76
2021/10/21 06:43:30;;;;;;;1.83;1.73;;;16.90;43.60;;;;;;10302980;28;20239;-75
2021/10/21 06:48:34;;;;;;;1.83;1.70;;;16.90;43.80;;;;;;10309251;28;20255;-76
2021/10/21 06:53:37;;;;;;;2.20;2.10;;;16.90;43.50;;;;;;10308245;28;20235;-75
2021/10/21 06:58:42;;;;;;;2.40;2.17;;;16.90;43.70;;;;;;10314318;28;20231;-75
2021/10/21 07:03:45;;;;;;;2.17;1.80;;;16.90;43.50;;;;;;10311677;28;20251;-75
2021/10/21 07:08:48;;;;;;;1.83;1.40;;;16.90;42.90;;;;;;10315601;28;20317;-75
2021/10/21 07:13:52;;;;;;;4.57;1.60;;;16.90;42.50;;;;;;10310884;28;20220;-76
2021/10/21 07:18:56;;;;;;;2.20;1.40;;;16.90;42.00;;;;;;10309446;28;20233;-76
2021/10/21 07:23:59;;;;;;;2.27;1.40;;;16.80;41.50;;;;;;10303610;28;20265;-75
2021/10/21 07:29:04;;;;;;;1.20;0.90;;;16.80;40.80;;;;;;10303643;28;20253;-75
2021/10/21 07:34:07;;;;;;;2.97;1.10;;;16.80;40.60;;;;;;10306246;28;20241;-76
2021/10/21 07:39:10;;;;;;;3.87;1.30;;;16.80;40.70;;;;;;10304094;28;20242;-77
2021/10/21 07:44:14;;;;;;;4.30;1.43;;;16.80;40.20;;;;;;10304175;28;20245;-77
2021/10/21 07:49:17;;;;;;;2.47;1.20;;;16.80;40.10;;;;;;10300988;28;20359;-76
2021/10/21 07:54:23;;;;;;;3.93;1.27;;;16.80;39.70;;;;;;10314963;28;20231;-75
2021/10/21 07:59:29;;;;;;;8.47;1.43;;;16.90;39.10;;;;;;10311891;28;20635;-76
2021/10/21 08:04:32;;;;;;;4.27;1.70;;;17.00;39.00;;;;;;10310927;28;20656;-77
2021/10/21 08:09:35;;;;;;;4.83;1.50;;;17.10;38.80;;;;;;10309724;28;20232;-76
2021/10/21 08:14:42;;;;;;;4.10;1.47;;;17.20;38.70;;;;;;10308866;28;20235;-76
2021/10/21 08:19:45;;;;;;;4.17;1.30;;;17.30;37.30;;;;;;10301204;28;20231;-76
2021/10/21 08:24:49;;;;;;;4.27;1.40;;;17.40;37.80;;;;;;10307279;28;20242;-75
2021/10/21 08:29:53;;;;;;;4.80;1.40;;;17.40;37.70;;;;;;10311385;28;20327;-75
2021/10/21 08:34:57;;;;;;;4.77;1.50;;;17.50;36.70;;;;;;10303648;28;20238;-75
2021/10/21 08:40:01;;;;;;;2.83;1.20;;;17.60;37.10;;;;;;10314264;28;20239;-76
2021/10/21 08:45:07;;;;;;;4.73;1.30;;;17.70;35.90;;;;;;10312201;28;20242;-77
2021/10/21 08:50:12;;;;;;;5.63;1.23;;;17.70;35.40;;;;;;10310229;28;20723;-75
2021/10/21 08:55:16;;;;;;;3.60;1.43;;;17.70;35.90;;;;;;10317094;28;20251;-76
2021/10/21 09:00:20;;;;;;;4.30;1.40;;;17.80;36.10;;;;;;10312015;28;20238;-76
2021/10/21 09:05:29;;;;;;;3.93;1.13;;;17.80;34.90;;;;;;10314319;28;20234;-75
2021/10/21 09:10:33;;;;;;;5.20;1.30;;;17.90;35.70;;;;;;10315913;28;20260;-78
2021/10/21 09:15:47;;;;;;;2.83;1.27;;;17.90;35.60;;;;;;10309789;28;20330;-76
2021/10/21 09:20:50;;;;;;;3.97;1.30;;;18.00;34.70;;;;;;10309388;28;20220;-76
2021/10/21 09:25:53;;;;;;;4.37;1.40;;;18.10;34.90;;;;;;10308589;28;20601;-76
2021/10/21 09:31:05;;;;;;;4.10;1.20;;;18.20;35.50;;;;;;10311170;28;20234;-77
2021/10/21 09:36:08;;;;;;;3.30;1.37;;;18.40;34.10;;;;;;10310903;28;20238;-75
2021/10/21 09:41:16;;;;;;;4.00;1.30;;;18.50;34.30;;;;;;10312235;28;20231;-76
2021/10/21 09:46:31;;;;;;;4.53;1.20;;;18.60;31.30;;;;;;10304173;28;20254;-76
2021/10/21 09:51:36;;;;;;;2.67;1.10;;;18.60;31.50;;;;;;10312131;28;20243;-75
2021/10/21 09:56:57;;;;;;;4.90;1.40;;;18.70;33.00;;;;;;10307963;28;20248;-76
2021/10/21 10:02:10;;;;;;;3.77;1.10;;;18.70;29.70;;;;;;10309113;28;20246;-76
2021/10/21 10:07:14;;;;;;;2.87;1.00;;;18.80;31.00;;;;;;10311683;28;20255;-76
2021/10/21 10:12:18;;;;;;;5.53;0.93;;;18.90;32.70;;;;;;10313281;28;20234;-76
2021/10/21 10:17:23;;;;;;;3.67;1.00;;;19.00;32.20;;;;;;10314916;28;20231;-79
2021/10/21 10:22:30;;;;;;;3.60;1.00;;;19.10;31.30;;;;;;10300736;28;20236;-76
2021/10/21 10:27:34;;;;;;;4.37;1.33;;;19.10;30.20;;;;;;10308454;28;20244;-77
2021/10/21 10:32:42;;;;;;;5.07;1.00;;;19.20;31.50;;;;;;10317039;28;20235;-77
2021/10/21 10:37:53;;;;;;;1.17;0.87;;;19.20;30.00;;;;;;10298431;28;20274;-78
2021/10/21 10:43:02;;;;;;;2.53;1.10;;;19.20;30.00;;;;;;10307283;28;20309;-77
2021/10/21 10:48:07;;;;;;;0.53;0.53;;;19.30;30.40;;;;;;10304023;28;20239;-77
2021/10/21 10:53:11;;;;;;;3.17;0.83;;;19.40;30.50;;;;;;10307923;28;20237;-77
2021/10/21 10:58:16;;;;;;;2.33;0.80;;;19.40;29.40;;;;;;10316777;28;20238;-77
2021/10/21 11:03:38;;;;;;;2.00;0.80;;;19.40;29.30;;;;;;10301500;28;20250;-75
2021/10/21 11:08:53;;;;;;;1.23;0.80;;;19.30;28.80;;;;;;10302245;28;20239;-75
2021/10/21 11:14:08;;;;;;;2.70;0.80;;;19.30;29.10;;;;;;10304497;28;20230;-76
2021/10/21 11:19:15;;;;;;;2.67;0.80;;;19.30;27.30;;;;;;10309799;28;21773;-77
2021/10/21 11:25:03;;;;;;;2.73;0.70;;;19.20;28.80;;;;;;10294042;28;20234;-75
2021/10/21 11:30:10;;;;;;;1.77;0.70;;;19.00;28.40;;;;;;10277415;28;20231;-77
2021/10/21 11:35:37;;;;;;;1.27;0.60;;;18.80;29.80;;;;;;10295045;28;20228;-76
2021/10/21 11:40:42;;;;;;;1.93;0.83;;;18.60;30.50;;;;;;10297574;28;20266;-75
2021/10/21 11:45:45;;;;;;;2.33;0.80;;;18.40;30.00;;;;;;10290949;28;20599;-75
2021/10/21 11:50:52;;;;;;;1.23;0.67;;;18.30;30.60;;;;;;10288605;28;20230;-75
2021/10/21 11:55:57;;;;;;;1.20;0.53;;;18.20;30.80;;;;;;10305033;28;20277;-77
2021/10/21 12:01:02;;;;;;;1.97;0.60;;;18.20;30.80;;;;;;10304476;28;20242;-76
2021/10/21 12:06:09;;;;;;;0.97;0.60;;;18.20;30.50;;;;;;10300773;28;20236;-76
2021/10/21 12:11:19;;;;;;;0.53;0.53;;;18.10;30.60;;;;;;10304125;28;20262;-76
2021/10/21 12:16:23;;;;;;;1.03;0.60;;;18.00;30.60;;;;;;10307425;28;20750;-76
2021/10/21 12:21:41;;;;;;;0.70;0.60;;;18.00;31.10;;;;;;10297936;28;20806;-76
2021/10/21 12:26:57;;;;;;;0.90;0.50;;;18.10;29.70;;;;;;10306139;28;20237;-76
2021/10/21 12:32:00;;;;;;;0.50;0.50;;;18.00;29.50;;;;;;10298889;28;20238;-76
2021/10/21 12:37:08;;;;;;;0.60;0.50;;;18.00;30.60;;;;;;10303740;28;20651;-76
2021/10/21 12:42:18;;;;;;;1.87;0.40;;;18.00;29.80;;;;;;10300605;28;20235;-76
2021/10/21 12:47:24;;;;;;;0.50;0.50;;;18.00;29.50;;;;;;10300513;28;20239;-76
2021/10/21 12:52:30;;;;;;;0.40;0.40;;;17.90;29.50;;;;;;10301285;28;20238;-75
2021/10/21 12:57:40;;;;;;;3.07;0.70;;;17.90;30.00;;;;;;10300005;28;20246;-76
2021/10/21 13:02:43;;;;;;;0.40;0.40;;;17.90;29.80;;;;;;10303277;28;20243;-76
2021/10/21 13:07:47;;;;;;;1.43;0.60;;;17.90;30.00;;;;;;10305142;28;20787;-76
2021/10/21 13:12:51;;;;;;;0.40;0.40;;;17.90;29.60;;;;;;10298974;28;20231;-76
2021/10/21 13:17:54;;;;;;;1.63;0.60;;;17.80;29.70;;;;;;10304628;28;20234;-78
2021/10/21 13:22:59;;;;;;;1.20;0.53;;;17.80;29.90;;;;;;10308497;28;20230;-77
2021/10/21 13:28:02;;;;;;;0.97;0.60;;;17.80;29.80;;;;;;10314715;28;20624;-76
2021/10/21 13:33:05;;;;;;;0.40;0.40;;;17.80;30.30;;;;;;10305399;28;20318;-76
2021/10/21 13:38:11;;;;;;;0.73;0.60;;;17.80;30.00;;;;;;10311775;28;20232;-76
2021/10/21 13:43:15;;;;;;;0.50;0.50;;;17.80;29.80;;;;;;10314289;28;20247;-75
2021/10/21 13:48:18;;;;;;;0.60;0.60;;;17.80;30.10;;;;;;10309742;28;20806;-75
2021/10/21 13:53:22;;;;;;;0.87;0.67;;;17.90;30.00;;;;;;10307807;28;20231;-75
2021/10/21 13:58:26;;;;;;;0.60;0.60;;;17.90;30.00;;;;;;10311633;28;20327;-75
2021/10/21 14:03:29;;;;;;;1.87;0.53;;;17.90;30.40;;;;;;10304876;28;20231;-76
2021/10/21 14:08:34;;;;;;;0.60;0.60;;;18.00;30.50;;;;;;10318419;28;20766;-76
2021/10/21 14:13:38;;;;;;;1.80;0.60;;;18.10;29.70;;;;;;10305021;28;20718;-75
2021/10/21 14:18:41;;;;;;;0.90;0.60;;;18.00;29.50;;;;;;10314951;28;20349;-76
2021/10/21 14:23:46;;;;;;;1.73;0.70;;;18.00;29.20;;;;;;10304349;28;20785;-76
2021/10/21 14:28:49;;;;;;;0.87;0.60;;;17.90;27.70;;;;;;10310923;28;20235;-77
2021/10/21 14:33:52;;;;;;;2.00;0.90;;;17.80;28.60;;;;;;10313787;28;20719;-77
2021/10/21 14:38:57;;;;;;;0.73;0.60;;;17.70;28.70;;;;;;10303162;28;20231;-77
2021/10/21 14:44:01;;;;;;;1.47;0.80;;;17.70;28.40;;;;;;10299214;28;20227;-76
2021/10/21 14:49:05;;;;;;;1.40;0.57;;;17.70;28.50;;;;;;10312589;28;20228;-77
2021/10/21 14:54:10;;;;;;;1.73;0.80;;;17.70;28.20;;;;;;10298725;28;20235;-76
2021/10/21 14:59:13;;;;;;;1.10;0.60;;;17.60;28.30;;;;;;10312093;28;20243;-77
2021/10/21 15:04:20;;;;;;;0.83;0.60;;;17.60;28.50;;;;;;10311283;28;20223;-76
2021/10/21 15:25:30;;;;;;;1.23;0.83;;;17.50;28.60;;;;;;10308260;28;20230;-76
2021/10/21 15:30:34;;;;;;;1.73;0.80;;;17.50;28.60;;;;;;10304741;28;20237;-77
2021/10/21 15:35:37;;;;;;;2.10;0.93;;;17.40;28.80;;;;;;10304653;28;20242;-77
2021/10/21 15:40:42;;;;;;;2.93;0.90;;;17.40;29.00;;;;;;10304604;28;20701;-75
2021/10/21 15:45:50;;;;;;;0.70;0.70;;;17.40;28.80;;;;;;10299953;28;20231;-76
2021/10/21 15:51:04;;;;;;;1.70;1.00;;;17.30;29.10;;;;;;10310219;28;20318;-76
2021/10/21 16:12:22;;;;;;;2.33;1.50;;;17.10;29.10;;;;;;10301669;28;20243;-76
2021/10/21 16:17:32;;;;;;;2.10;1.87;;;16.90;29.00;;;;;;10306820;28;20700;-77
2021/10/21 16:22:44;;;;;;;2.53;2.30;;;16.80;29.20;;;;;;10300818;28;20257;-76
2021/10/21 16:27:50;;;;;;;3.10;2.80;;;16.70;29.30;;;;;;10299722;28;20234;-76
2021/10/21 16:32:53;;;;;;;3.60;3.30;;;16.50;29.30;;;;;;10298681;28;20238;-76
2021/10/21 16:37:56;;;;;;;3.97;2.60;;;16.40;29.60;;;;;;10299723;28;20235;-76
2021/10/21 16:43:21;;;;;;;1.83;1.50;;;16.30;29.60;;;;;;10305033;28;20242;-76
2021/10/21 16:48:24;;;;;;;3.33;2.10;;;16.20;29.70;;;;;;10300279;28;20242;-76
2021/10/21 16:53:28;;;;;;;3.07;2.00;;;16.10;29.80;;;;;;10312206;28;20267;-76
2021/10/21 16:58:35;;;;;;;2.10;1.90;;;16.10;30.00;;;;;;10308089;28;20245;-76
2021/10/21 17:03:38;;;;;;;3.87;3.33;;;16.10;30.00;;;;;;10314805;28;20250;-75
2021/10/21 17:08:41;;;;;;;5.47;3.97;;;16.00;30.00;;;;;;10316021;28;20230;-75
2021/10/21 17:13:46;;;;;;;4.10;2.67;;;16.00;30.00;;;;;;10318348;28;20735;-75
2021/10/21 17:18:50;;;;;;;6.10;4.20;;;16.00;30.00;;;;;;10303335;28;20235;-75
2021/10/21 17:23:53;;;;;;;4.97;3.63;;;15.80;29.80;;;;;;10318767;28;20315;-75
2021/10/21 17:28:58;;;;;;;5.70;3.70;;;15.60;30.00;;;;;;10302968;28;20231;-76
2021/10/21 17:34:02;;;;;;;7.23;6.40;;;15.30;30.10;;;;;;10308486;28;20242;-76
2021/10/21 17:39:06;;;;;;;5.30;4.60;;;15.20;30.30;;;;;;10306467;28;20708;-75
2021/10/21 17:44:11;;;;;;;4.57;3.80;;;15.00;31.20;;;;;;10295707;28;20258;-75
2021/10/21 17:49:14;;;;;;;5.50;3.43;;;14.90;30.90;;;;;;10288784;28;20355;-74
2021/10/21 17:54:17;;;;;;;6.70;4.50;;;14.80;30.90;;;;;;10288865;28;20235;-74
2021/10/21 17:59:22;;;;;;;6.40;4.30;;;14.70;30.90;;;;;;10302781;28;20242;-75
2021/10/21 18:04:25;;;;;;;6.00;3.40;;;14.60;31.10;;;;;;10296335;28;20241;-75
2021/10/21 18:09:29;;;;;;;4.90;3.30;;;14.50;31.30;;;;;;10294892;28;20731;-75
2021/10/21 18:14:35;;;;;;;3.83;2.80;;;14.40;31.60;;;;;;10319182;28;20235;-75
2021/10/21 18:19:38;;;;;;;3.13;2.87;;;14.40;31.60;;;;;;10306181;28;20239;-75
2021/10/21 18:24:42;;;;;;;3.30;2.93;;;14.40;31.60;;;;;;10316683;28;20235;-75
2021/10/21 18:29:47;;;;;;;5.67;4.40;;;14.30;31.50;;;;;;10313785;28;20251;-75
2021/10/21 18:34:50;;;;;;;5.17;4.67;;;14.20;31.40;;;;;;10315703;28;20238;-75
2021/10/21 18:39:54;;;;;;;6.07;5.47;;;14.10;31.30;;;;;;10313482;28;20246;-76
2021/10/21 18:44:59;;;;;;;7.77;6.97;;;14.00;31.20;;;;;;10300972;28;20227;-74
2021/10/21 18:50:03;;;;;;;4.70;4.20;;;13.90;31.20;;;;;;10302793;28;20232;-76
2021/10/21 18:55:08;;;;;;;4.43;3.73;;;13.80;31.10;;;;;;10304590;28;20242;-74
2021/10/21 19:00:13;;;;;;;4.73;3.20;;;13.80;31.80;;;;;;10319019;28;20231;-74
2021/10/21 19:05:17;;;;;;;4.70;2.40;;;13.70;31.90;;;;;;10310402;28;20598;-74
2021/10/21 19:10:21;;;;;;;4.23;2.60;;;13.70;32.00;;;;;;10311766;28;20243;-74
2021/10/21 19:15:25;;;;;;;4.27;3.87;;;13.70;31.90;;;;;;10304945;28;20237;-73
2021/10/21 19:20:29;;;;;;;3.70;3.40;;;13.70;32.00;;;;;;10309023;28;20241;-74
2021/10/21 19:25:32;;;;;;;3.53;2.30;;;13.80;32.00;;;;;;10307904;28;20604;-74
2021/10/21 19:30:37;;;;;;;3.30;2.47;;;13.80;32.00;;;;;;10311643;28;20242;-74
2021/10/21 19:35:41;;;;;;;4.33;2.70;;;13.80;32.10;;;;;;10303782;28;20246;-74
2021/10/21 19:40:44;;;;;;;4.87;2.47;;;13.90;32.10;;;;;;10306701;28;20238;-74
2021/10/21 19:45:49;;;;;;;4.30;2.00;;;14.00;31.80;;;;;;10309481;28;20266;-74
2021/10/21 19:50:55;;;;;;;2.93;1.80;;;14.00;31.50;;;;;;10306437;28;20223;-74
2021/10/21 19:55:58;;;;;;;2.30;1.30;;;14.10;31.50;;;;;;10303654;28;20241;-74
2021/10/21 20:01:05;;;;;;;2.80;1.73;;;14.20;31.40;;;;;;10305656;28;20680;-74
2021/10/21 20:06:09;;;;;;;3.03;2.10;;;14.30;31.50;;;;;;10309230;28;20255;-74
2021/10/21 20:11:12;;;;;;;1.93;1.40;;;14.40;31.60;;;;;;10309862;28;20237;-74
2021/10/21 20:16:17;;;;;;;2.23;1.00;;;14.40;31.60;;;;;;10310951;28;20266;-74
2021/10/21 20:21:20;;;;;;;2.00;1.20;;;14.50;31.70;;;;;;10307906;28;20220;-74
2021/10/21 20:26:24;;;;;;;1.30;0.90;;;14.60;31.80;;;;;;10305431;28;20762;-74
2021/10/21 20:31:29;;;;;;;3.20;1.00;;;14.70;31.80;;;;;;10310773;28;21887;-74
2021/10/21 20:36:32;;;;;;;2.70;1.10;;;14.80;31.90;;;;;;10311251;28;20574;-74
2021/10/21 20:41:36;;;;;;;2.03;0.93;;;14.90;32.00;;;;;;10307258;28;20234;-74
2021/10/21 20:46:41;;;;;;;2.60;0.90;;;15.00;32.10;;;;;;10310684;28;20239;-74
2021/10/21 20:51:44;;;;;;;2.63;0.87;;;15.00;32.10;;;;;;10313340;28;20238;-74
2021/10/21 20:56:47;;;;;;;1.40;1.00;;;15.10;32.20;;;;;;10312739;28;20786;-74
2021/10/21 21:01:52;;;;;;;2.07;0.97;;;15.10;32.20;;;;;;10318624;28;20233;-74
2021/10/21 21:06:55;;;;;;;2.47;1.20;;;15.00;32.60;;;;;;10312060;28;20229;-74
2021/10/21 21:12:05;;;;;;;1.77;1.10;;;14.90;32.80;;;;;;10304958;28;20233;-75
2021/10/21 21:17:09;;;;;;;2.40;1.10;;;14.80;33.00;;;;;;10314831;28;20736;-74
2021/10/21 21:22:13;;;;;;;1.40;1.10;;;14.70;33.60;;;;;;10313261;28;20586;-74
2021/10/21 21:27:16;;;;;;;4.00;1.50;;;14.60;33.30;;;;;;10313990;28;20720;-74
2021/10/21 21:32:20;;;;;;;2.60;1.30;;;14.50;33.70;;;;;;10313099;28;20599;-74
2021/10/21 21:37:23;;;;;;;3.53;1.40;;;14.30;34.10;;;;;;10320670;28;20231;-74
2021/10/21 21:42:27;;;;;;;1.97;1.37;;;14.20;34.10;;;;;;10311242;28;20234;-74
2021/10/21 21:47:31;;;;;;;2.17;1.10;;;14.10;34.30;;;;;;10309741;28;20227;-74
2021/10/21 21:52:34;;;;;;;2.67;1.40;;;14.00;34.90;;;;;;10305463;28;20226;-74
2021/10/21 21:57:37;;;;;;;3.33;1.33;;;14.00;34.60;;;;;;10316949;28;20589;-74
2021/10/21 22:02:43;;;;;;;4.17;1.30;;;13.90;34.70;;;;;;10305315;28;20231;-74
2021/10/21 22:07:46;;;;;;;1.37;1.10;;;13.90;35.30;;;;;;10311663;28;20245;-74
2021/10/21 22:12:50;;;;;;;2.93;1.13;;;13.90;35.00;;;;;;10314424;28;20242;-74
2021/10/21 22:17:56;;;;;;;1.60;1.20;;;13.80;35.30;;;;;;10315175;28;20238;-74
2021/10/21 22:22:59;;;;;;;1.73;1.20;;;13.80;35.90;;;;;;10315205;28;20845;-74
2021/10/21 22:28:03;;;;;;;2.20;1.60;;;13.90;35.80;;;;;;10309998;28;21166;-74
2021/10/21 22:33:08;;;;;;;2.70;1.90;;;14.00;35.80;;;;;;10311187;28;20235;-74
2021/10/21 22:38:11;;;;;;;3.43;1.53;;;14.10;36.40;;;;;;10314011;28;20233;-74
2021/10/21 22:43:16;;;;;;;2.53;1.30;;;14.10;35.70;;;;;;10311837;28;20219;-74
2021/10/21 22:48:25;;;;;;;2.40;1.10;;;14.10;35.60;;;;;;10311217;28;20231;-73
2021/10/21 22:53:29;;;;;;;1.37;1.07;;;14.10;36.10;;;;;;10313516;28;20798;-74
2021/10/21 22:58:34;;;;;;;1.93;1.10;;;14.00;35.70;;;;;;10312383;28;20235;-74
2021/10/21 23:03:40;;;;;;;4.10;1.20;;;14.00;35.90;;;;;;10311091;28;20712;-74
2021/10/21 23:08:43;;;;;;;2.67;1.20;;;14.00;36.30;;;;;;10314744;28;20235;-74
2021/10/21 23:13:48;;;;;;;2.93;1.20;;;14.00;35.90;;;;;;10300165;28;20619;-74
2021/10/21 23:18:52;;;;;;;3.07;1.30;;;14.00;36.00;;;;;;10307179;28;20415;-74
2021/10/21 23:23:55;;;;;;;1.97;1.10;;;13.90;36.40;;;;;;10310441;28;20234;-74
2021/10/21 23:28:59;;;;;;;3.53;1.50;;;13.80;36.10;;;;;;10312772;28;20233;-74
2021/10/21 23:34:03;;;;;;;1.93;1.10;;;13.80;36.20;;;;;;10302426;28;20241;-74
2021/10/21 23:39:06;;;;;;;2.77;1.30;;;13.80;36.80;;;;;;10305330;28;20574;-74
2021/10/21 23:44:10;;;;;;;2.40;1.23;;;13.80;36.70;;;;;;10318230;28;20225;-74
2021/10/21 23:49:14;;;;;;;3.47;1.37;;;13.80;36.80;;;;;;10313138;28;20608;-74
2021/10/21 23:54:17;;;;;;;2.43;1.20;;;13.80;37.20;;;;;;10307733;28;20745;-74
2021/10/21 23:59:21;;;;;;;2.73;1.30;;;13.70;36.90;;;;;;10305784;28;20232;-74
